Time;durP1;ratioP1;P1;durP2;ratioP2;P2;SDS_P1;SDS_P2;PMS_P1;PMS_P2;Temp;Humidity;BMP_temperature;BMP_pressure;BME280_temperature;BME280_humidity;BME280_pressure;Samples;Min_cycle;Max_cycle;Signal;HPM_P1;HPM_P2
2023/01/31 00:01:59;;;;;;;1.75;1.65;;;3.20;99.90;;;;;;5113093;28;20038;-66
2023/01/31 00:04:30;;;;;;;5.25;2.60;;;3.00;99.90;;;;;;5094108;28;20051;-64
2023/01/31 00:07:01;;;;;;;4.38;3.15;;;2.90;99.90;;;;;;5149274;28;20034;-65
2023/01/31 00:09:32;;;;;;;3.95;2.70;;;2.80;99.90;;;;;;5153705;28;20604;-66
2023/01/31 00:12:06;;;;;;;9.38;3.40;;;2.70;99.90;;;;;;5152276;28;20030;-66
2023/01/31 00:14:37;;;;;;;3.33;3.00;;;2.80;99.90;;;;;;5119369;28;20366;-64
2023/01/31 00:17:08;;;;;;;3.97;2.80;;;2.90;99.90;;;;;;5133533;28;20026;-64
2023/01/31 00:19:49;;;;;;;8.82;4.05;;;3.00;99.90;;;;;;5135362;28;20034;-64
2023/01/31 00:22:23;;;;;;;4.80;3.15;;;3.00;99.90;;;;;;5152896;28;20040;-64
2023/01/31 00:24:54;;;;;;;4.82;3.33;;;3.10;99.90;;;;;;5153380;28;20048;-63
2023/01/31 00:27:25;;;;;;;4.18;2.67;;;3.10;99.90;;;;;;5135408;28;20628;-64
2023/01/31 00:29:56;;;;;;;5.38;3.45;;;3.20;99.90;;;;;;5151025;28;20034;-65
2023/01/31 00:32:28;;;;;;;5.32;3.13;;;3.20;99.90;;;;;;5149243;28;20034;-65
2023/01/31 00:35:02;;;;;;;5.35;2.78;;;3.20;99.90;;;;;;5122383;28;20049;-64
2023/01/31 00:37:35;;;;;;;4.10;3.22;;;3.30;99.90;;;;;;5119257;28;20045;-66
2023/01/31 00:40:10;;;;;;;3.85;2.40;;;3.30;99.90;;;;;;5140301;28;20032;-64
2023/01/31 00:42:44;;;;;;;5.30;3.45;;;3.30;99.90;;;;;;5172273;28;20030;-64
2023/01/31 00:45:15;;;;;;;4.38;3.08;;;3.30;99.90;;;;;;5116389;28;20507;-65
2023/01/31 00:47:51;;;;;;;4.43;3.38;;;3.20;99.90;;;;;;5152789;28;20038;-65
2023/01/31 00:50:24;;;;;;;5.78;3.00;;;3.30;99.90;;;;;;5136543;28;20034;-64
2023/01/31 00:52:55;;;;;;;7.67;3.43;;;3.30;99.90;;;;;;5151208;28;20041;-65
2023/01/31 00:55:27;;;;;;;4.60;2.53;;;3.30;99.90;;;;;;5134711;28;20034;-65
2023/01/31 00:57:58;;;;;;;3.45;2.10;;;3.30;99.90;;;;;;5134171;28;20038;-64
2023/01/31 01:03:08;;;;;;;3.77;3.00;;;3.40;99.90;;;;;;5182927;23;20050;-64
2023/01/31 01:05:42;;;;;;;4.82;3.08;;;3.40;99.90;;;;;;5115530;28;20070;-65
2023/01/31 01:08:14;;;;;;;4.18;2.67;;;3.50;99.90;;;;;;5126953;28;20019;-62
2023/01/31 01:10:45;;;;;;;2.85;2.45;;;3.50;99.90;;;;;;5117765;28;20038;-62
2023/01/31 01:13:16;;;;;;;4.35;2.58;;;3.50;99.90;;;;;;5093307;29;20043;-63
2023/01/31 01:15:50;;;;;;;4.43;2.72;;;3.60;99.90;;;;;;5114895;28;20039;-63
2023/01/31 01:18:24;;;;;;;8.65;2.72;;;3.60;99.90;;;;;;5113116;28;20456;-63
2023/01/31 01:20:55;;;;;;;4.00;3.05;;;3.60;99.90;;;;;;5100657;28;20404;-62
2023/01/31 01:23:26;;;;;;;6.18;3.50;;;3.60;99.90;;;;;;5143713;28;20226;-63
2023/01/31 01:25:59;;;;;;;7.78;4.00;;;3.60;99.90;;;;;;5127745;28;20039;-63
2023/01/31 01:28:36;;;;;;;6.35;2.85;;;3.50;99.90;;;;;;5131486;28;20035;-64
2023/01/31 01:31:10;;;;;;;5.50;3.85;;;3.50;99.90;;;;;;5113770;28;20045;-63
2023/01/31 01:33:45;;;;;;;6.47;3.00;;;3.50;99.90;;;;;;5145080;28;20042;-64
2023/01/31 01:36:20;;;;;;;6.03;3.03;;;3.40;99.90;;;;;;5148135;28;20721;-63
2023/01/31 01:38:52;;;;;;;5.40;2.72;;;3.40;99.90;;;;;;5117962;28;20514;-61
2023/01/31 01:41:26;;;;;;;4.75;2.58;;;3.40;99.90;;;;;;5132335;28;20036;-64
2023/01/31 01:44:01;;;;;;;3.63;2.43;;;3.40;99.90;;;;;;5132256;28;20030;-62
2023/01/31 01:46:37;;;;;;;5.53;3.38;;;3.30;99.90;;;;;;5146819;28;20038;-62
2023/01/31 01:49:33;;;;;;;3.58;2.78;;;3.50;99.90;;;;;;5147460;28;20034;-63
2023/01/31 01:52:13;;;;;;;5.63;2.53;;;3.40;99.90;;;;;;5142275;28;20038;-64
2023/01/31 01:54:55;;;;;;;5.95;3.10;;;3.40;99.90;;;;;;5132055;28;20034;-62
2023/01/31 01:57:34;;;;;;;4.97;2.58;;;3.60;99.90;;;;;;5147695;28;20505;-61
2023/01/31 02:00:14;;;;;;;3.80;2.47;;;3.60;99.90;;;;;;5108465;28;20038;-62
2023/01/31 02:02:48;;;;;;;6.18;2.70;;;3.60;99.90;;;;;;5114339;28;20060;-63
2023/01/31 02:05:35;;;;;;;2.40;2.20;;;3.70;99.90;;;;;;5096333;28;20383;-65
2023/01/31 02:08:09;;;;;;;5.13;2.95;;;3.60;99.90;;;;;;5104638;29;20031;-65
2023/01/31 02:11:05;;;;;;;7.97;2.65;;;3.40;99.90;;;;;;5092183;28;20045;-66
2023/01/31 02:13:40;;;;;;;5.55;3.17;;;3.30;99.90;;;;;;5108744;28;20026;-65
2023/01/31 02:16:11;;;;;;;4.75;3.20;;;3.20;99.90;;;;;;5108714;28;20076;-65
2023/01/31 02:18:44;;;;;;;6.55;2.70;;;3.10;99.90;;;;;;5111884;28;20039;-67
2023/01/31 02:21:36;;;;;;;2.58;1.88;;;3.10;99.90;;;;;;5111185;28;20033;-68
2023/01/31 02:24:31;;;;;;;4.68;3.15;;;3.20;99.90;;;;;;5096301;28;20611;-65
2023/01/31 02:27:31;;;;;;;3.17;2.35;;;3.30;99.90;;;;;;5109133;28;20061;-65
2023/01/31 02:30:42;;;;;;;5.72;3.25;;;3.20;99.90;;;;;;5130585;28;20033;-67
2023/01/31 02:33:44;;;;;;;5.00;2.70;;;3.20;99.90;;;;;;5086370;28;20238;-65
2023/01/31 02:36:25;;;;;;;6.43;2.90;;;3.30;99.90;;;;;;5094591;28;20034;-64
2023/01/31 02:39:11;;;;;;;5.05;2.60;;;3.30;99.90;;;;;;5129034;28;20098;-63
2023/01/31 02:41:56;;;;;;;3.20;1.95;;;3.30;99.90;;;;;;5097034;28;20339;-63
2023/01/31 02:44:58;;;;;;;;;;;3.40;99.90;;;;;;5091934;29;20039;-62
2023/01/31 02:47:47;;;;;;;3.63;3.00;;;3.40;99.90;;;;;;5105802;29;20390;-62
2023/01/31 02:50:43;;;;;;;2.90;2.28;;;3.40;99.90;;;;;;5125642;28;20042;-63
2023/01/31 02:53:23;;;;;;;4.30;2.40;;;3.50;99.90;;;;;;5096648;28;20529;-63
2023/01/31 02:56:22;;;;;;;5.30;2.72;;;3.70;99.90;;;;;;5095973;28;20365;-63
2023/01/31 02:59:03;;;;;;;3.40;2.25;;;3.70;99.90;;;;;;5108015;29;20039;-63
2023/01/31 03:02:04;;;;;;;3.65;2.25;;;3.80;99.90;;;;;;5117631;28;20103;-63
2023/01/31 03:04:37;;;;;;;3.33;1.73;;;3.70;99.90;;;;;;5119721;28;20361;-62
2023/01/31 03:07:28;;;;;;;4.45;2.00;;;3.70;99.90;;;;;;5101673;29;20050;-62
2023/01/31 03:10:09;;;;;;;3.63;2.15;;;3.70;99.90;;;;;;5094931;28;20039;-63
2023/01/31 03:12:52;;;;;;;5.15;2.55;;;3.80;99.90;;;;;;5127033;28;20038;-62
2023/01/31 03:19:19;;;;;;;6.25;2.42;;;3.80;99.90;;;;;;5063798;29;20037;-63
2023/01/31 03:22:18;;;;;;;3.58;2.55;;;3.70;99.90;;;;;;5047169;29;20040;-66
2023/01/31 03:24:55;;;;;;;5.32;2.55;;;3.50;99.90;;;;;;5031300;29;20353;-63
2023/01/31 03:27:29;;;;;;;4.28;2.53;;;3.50;99.90;;;;;;5016470;29;20051;-63
2023/01/31 03:30:08;;;;;;;3.13;2.25;;;3.50;99.90;;;;;;5049312;29;20045;-63
2023/01/31 03:32:49;;;;;;;3.38;2.13;;;3.60;99.90;;;;;;5034096;29;20051;-63
2023/01/31 03:35:30;;;;;;;3.65;2.70;;;3.60;99.90;;;;;;5066345;28;20154;-62
2023/01/31 03:38:10;;;;;;;4.97;2.58;;;3.70;99.90;;;;;;5056198;29;20036;-63
2023/01/31 03:40:57;;;;;;;3.55;2.00;;;3.70;99.90;;;;;;5075652;29;20036;-63
2023/01/31 03:43:41;;;;;;;4.57;2.13;;;3.80;99.90;;;;;;5090832;29;20654;-62
2023/01/31 03:46:22;;;;;;;3.43;2.17;;;3.80;99.90;;;;;;5072563;29;20463;-63
2023/01/31 03:48:55;;;;;;;4.10;2.15;;;3.80;99.90;;;;;;5058948;29;20039;-62
2023/01/31 03:51:30;;;;;;;3.30;2.17;;;3.90;99.90;;;;;;5089772;29;20027;-62
2023/01/31 03:54:15;;;;;;;5.55;1.90;;;3.90;99.90;;;;;;5076993;29;20020;-63
2023/01/31 03:57:08;;;;;;;2.97;2.77;;;3.90;99.90;;;;;;5150178;28;20049;-62
2023/01/31 03:59:42;;;;;;;3.22;2.25;;;3.90;99.90;;;;;;5080710;29;20273;-62
2023/01/31 04:02:23;;;;;;;3.40;1.92;;;3.90;99.90;;;;;;5096032;28;20067;-64
2023/01/31 04:05:09;;;;;;;2.30;2.10;;;3.90;99.90;;;;;;5125480;28;20526;-64
2023/01/31 04:07:44;;;;;;;7.72;2.35;;;4.00;99.90;;;;;;5119383;28;20323;-64
2023/01/31 04:10:19;;;;;;;3.55;1.83;;;4.00;99.90;;;;;;5120589;28;20445;-66
2023/01/31 04:12:51;;;;;;;3.42;1.60;;;4.00;99.90;;;;;;5133923;28;20030;-67
2023/01/31 04:15:22;;;;;;;2.85;1.80;;;4.10;99.90;;;;;;5133117;28;20530;-65
2023/01/31 04:17:53;;;;;;;4.53;2.00;;;4.10;99.90;;;;;;5119350;28;20469;-65
2023/01/31 04:20:25;;;;;;;2.42;2.08;;;4.20;99.90;;;;;;5149544;28;20507;-66
2023/01/31 04:22:58;;;;;;;2.20;1.77;;;4.10;99.90;;;;;;5128855;28;20380;-65
2023/01/31 04:25:29;;;;;;;6.60;2.03;;;4.10;99.90;;;;;;5133541;28;20034;-64
2023/01/31 04:28:03;;;;;;;3.25;2.38;;;4.10;99.90;;;;;;5142842;28;20038;-66
2023/01/31 04:30:37;;;;;;;2.22;1.70;;;4.10;99.90;;;;;;5149038;28;20056;-67
2023/01/31 04:33:08;;;;;;;3.30;2.45;;;4.10;99.90;;;;;;5151641;28;20504;-65
2023/01/31 04:35:41;;;;;;;2.20;1.85;;;4.10;99.90;;;;;;5119087;28;20046;-66
2023/01/31 04:38:12;;;;;;;3.78;2.15;;;4.10;99.90;;;;;;5153000;28;20469;-65
2023/01/31 04:40:47;;;;;;;4.60;2.90;;;4.00;99.90;;;;;;5153169;28;20160;-66
2023/01/31 04:43:19;;;;;;;;;;;4.00;99.90;;;;;;5120172;28;20042;-67
2023/01/31 04:45:51;;;;;;;3.05;2.10;;;4.00;99.90;;;;;;5150349;28;19920;-64
2023/01/31 04:48:27;;;;;;;4.65;2.13;;;4.00;99.90;;;;;;5103147;28;20729;-66
2023/01/31 04:50:59;;;;;;;4.95;2.35;;;4.00;99.90;;;;;;5134833;28;20038;-64
2023/01/31 04:53:30;;;;;;;2.58;2.28;;;4.00;99.90;;;;;;5118937;28;20042;-66
2023/01/31 04:56:02;;;;;;;3.45;1.80;;;4.00;99.90;;;;;;5134382;28;20033;-66
2023/01/31 04:58:34;;;;;;;4.30;2.72;;;4.10;99.90;;;;;;5118091;28;20026;-67
2023/01/31 05:01:05;;;;;;;2.58;2.17;;;4.10;99.90;;;;;;5149511;28;20035;-66
2023/01/31 05:03:36;;;;;;;3.83;2.10;;;4.10;99.90;;;;;;5117025;28;20382;-65
2023/01/31 05:06:07;;;;;;;3.53;2.38;;;4.10;99.90;;;;;;5119591;28;20055;-65
2023/01/31 05:08:44;;;;;;;3.03;1.88;;;4.10;99.90;;;;;;5114647;28;20045;-64
2023/01/31 05:11:17;;;;;;;2.85;1.75;;;4.10;99.90;;;;;;5111626;28;20051;-65
2023/01/31 05:13:49;;;;;;;2.75;1.77;;;4.10;99.90;;;;;;5087273;29;20515;-66
2023/01/31 05:16:20;;;;;;;8.70;2.22;;;4.20;99.90;;;;;;5085109;28;20076;-66
2023/01/31 05:18:51;;;;;;;3.10;1.88;;;4.20;99.90;;;;;;5107951;28;20046;-66
2023/01/31 05:21:22;;;;;;;3.65;2.00;;;4.10;99.90;;;;;;5069142;28;20043;-65
2023/01/31 05:23:53;;;;;;;4.22;2.10;;;4.10;99.90;;;;;;5133308;28;20039;-65
2023/01/31 05:26:27;;;;;;;3.15;2.00;;;4.10;99.90;;;;;;5128323;28;20197;-64
2023/01/31 05:29:01;;;;;;;4.33;2.47;;;4.00;99.90;;;;;;5098694;28;20037;-64
2023/01/31 05:31:37;;;;;;;2.80;1.80;;;3.90;99.90;;;;;;5130885;28;20252;-65
2023/01/31 05:34:09;;;;;;;3.35;2.30;;;3.80;99.90;;;;;;5103721;28;20362;-66
2023/01/31 05:36:41;;;;;;;2.13;1.60;;;3.90;99.90;;;;;;5104149;28;20038;-66
2023/01/31 05:39:15;;;;;;;5.65;2.42;;;3.90;99.90;;;;;;5097235;28;20038;-65
2023/01/31 05:41:47;;;;;;;3.72;2.22;;;4.00;99.90;;;;;;5129436;28;20045;-66
2023/01/31 05:44:22;;;;;;;3.47;2.00;;;4.00;99.90;;;;;;5143230;28;20202;-66
2023/01/31 05:46:53;;;;;;;5.88;2.47;;;4.00;99.90;;;;;;5081455;28;20046;-64
2023/01/31 05:49:25;;;;;;;3.40;2.13;;;4.00;99.90;;;;;;5132996;28;20026;-65
2023/01/31 05:51:56;;;;;;;5.75;2.30;;;4.00;99.90;;;;;;5125745;28;20038;-65
2023/01/31 05:54:33;;;;;;;4.20;2.30;;;4.10;99.90;;;;;;5111865;28;20034;-65
2023/01/31 05:57:07;;;;;;;3.40;1.77;;;4.10;99.90;;;;;;5132936;28;20046;-65
2023/01/31 05:59:40;;;;;;;4.03;2.63;;;4.00;99.90;;;;;;5129926;28;20041;-63
2023/01/31 06:02:12;;;;;;;3.78;1.98;;;3.90;99.90;;;;;;5100670;28;20050;-66
2023/01/31 06:04:46;;;;;;;6.00;2.13;;;3.80;99.90;;;;;;5089767;28;20050;-65
2023/01/31 06:07:17;;;;;;;3.13;2.05;;;3.90;99.90;;;;;;5116783;28;20366;-65
2023/01/31 06:09:53;;;;;;;6.65;2.58;;;3.80;99.90;;;;;;5110873;28;20045;-65
2023/01/31 06:12:25;;;;;;;3.05;2.15;;;3.90;99.90;;;;;;5128581;28;20246;-64
2023/01/31 06:14:59;;;;;;;4.50;2.00;;;3.90;99.90;;;;;;5124923;28;20034;-64
2023/01/31 06:17:33;;;;;;;3.65;2.25;;;3.90;99.90;;;;;;5121558;28;20208;-64
2023/01/31 06:20:12;;;;;;;4.65;2.40;;;3.90;99.90;;;;;;5129198;28;20228;-65
2023/01/31 06:22:43;;;;;;;4.55;2.05;;;3.80;99.90;;;;;;5093051;28;20058;-65
2023/01/31 06:25:14;;;;;;;6.10;2.50;;;3.80;99.90;;;;;;5111543;28;20216;-65
2023/01/31 06:27:45;;;;;;;5.55;2.88;;;3.90;99.90;;;;;;5097563;29;20041;-65
2023/01/31 06:30:17;;;;;;;2.63;2.17;;;3.90;99.90;;;;;;5089555;29;20190;-65
2023/01/31 06:32:48;;;;;;;3.88;1.92;;;3.90;99.90;;;;;;5112209;28;20042;-66
2023/01/31 06:35:21;;;;;;;2.38;2.00;;;4.00;99.90;;;;;;5097889;28;20057;-65
2023/01/31 06:37:54;;;;;;;3.58;2.00;;;4.00;99.90;;;;;;5112615;28;20039;-66
2023/01/31 06:40:30;;;;;;;3.90;2.08;;;4.00;99.90;;;;;;5096803;28;20027;-64
2023/01/31 06:43:03;;;;;;;4.63;2.00;;;4.00;99.90;;;;;;5129703;28;20228;-65
2023/01/31 06:45:36;;;;;;;2.67;2.00;;;4.00;99.90;;;;;;5109532;28;20042;-65
2023/01/31 06:48:07;;;;;;;3.40;2.17;;;4.10;99.90;;;;;;5094490;28;20293;-65
2023/01/31 06:50:38;;;;;;;5.68;2.00;;;4.00;99.90;;;;;;5111582;28;20027;-65
2023/01/31 06:53:15;;;;;;;4.65;2.42;;;4.00;99.90;;;;;;5111525;28;20047;-65
2023/01/31 06:55:46;;;;;;;5.28;2.10;;;4.00;99.90;;;;;;5111029;28;20322;-66
2023/01/31 06:58:20;;;;;;;2.38;1.85;;;4.00;99.90;;;;;;5111632;28;20236;-65
2023/01/31 07:00:57;;;;;;;2.50;2.25;;;4.00;99.90;;;;;;5108552;28;20034;-66
2023/01/31 07:03:28;;;;;;;3.17;2.05;;;4.00;99.90;;;;;;5106122;28;20283;-64
2023/01/31 07:05:59;;;;;;;5.25;2.05;;;4.00;99.90;;;;;;5140595;28;20089;-66
2023/01/31 07:08:31;;;;;;;5.30;2.45;;;4.00;99.90;;;;;;5169659;28;20037;-65
2023/01/31 07:11:05;;;;;;;4.60;2.22;;;4.10;99.90;;;;;;5151939;28;20239;-64
2023/01/31 07:13:39;;;;;;;4.28;2.20;;;4.10;99.90;;;;;;5150694;28;20040;-65
2023/01/31 07:16:12;;;;;;;4.65;2.50;;;4.10;99.90;;;;;;5148853;28;20025;-65
2023/01/31 07:18:46;;;;;;;5.15;2.22;;;4.10;99.90;;;;;;5125213;28;20026;-66
2023/01/31 07:21:17;;;;;;;7.18;2.65;;;4.10;99.90;;;;;;5163599;28;20038;-66
2023/01/31 07:23:53;;;;;;;2.78;2.05;;;4.10;99.90;;;;;;5101442;28;20041;-66
2023/01/31 07:26:30;;;;;;;2.78;2.05;;;4.20;99.90;;;;;;5131228;28;20150;-64
2023/01/31 07:29:01;;;;;;;7.65;2.00;;;4.20;99.90;;;;;;5112428;28;20043;-66
2023/01/31 07:31:32;;;;;;;3.72;2.05;;;4.30;99.90;;;;;;5128680;28;20061;-67
2023/01/31 07:34:06;;;;;;;5.50;2.45;;;4.40;99.90;;;;;;5125218;28;20250;-66
2023/01/31 07:36:37;;;;;;;9.65;2.28;;;4.50;99.90;;;;;;5149432;28;20239;-64
2023/01/31 07:39:08;;;;;;;6.43;1.83;;;4.50;99.90;;;;;;5115605;28;20266;-65
2023/01/31 07:41:41;;;;;;;2.22;1.50;;;4.60;99.90;;;;;;5149041;28;20026;-66
2023/01/31 07:44:14;;;;;;;4.15;2.10;;;4.70;99.90;;;;;;5149722;28;20238;-65
2023/01/31 07:46:49;;;;;;;6.72;1.35;;;4.70;99.90;;;;;;5161099;28;20048;-65
2023/01/31 07:49:21;;;;;;;3.85;1.73;;;4.70;99.90;;;;;;5149795;28;20052;-66
2023/01/31 07:51:59;;;;;;;6.15;1.60;;;4.60;99.90;;;;;;5148638;28;20034;-65
2023/01/31 07:54:33;;;;;;;4.35;1.52;;;4.60;99.90;;;;;;5147989;28;20042;-66
2023/01/31 07:57:05;;;;;;;3.38;1.77;;;4.50;99.90;;;;;;5145884;28;20045;-64
2023/01/31 07:59:41;;;;;;;5.40;2.65;;;4.60;99.90;;;;;;5129729;28;20270;-65
2023/01/31 08:05:05;;;;;;;3.45;1.77;;;4.50;99.90;;;;;;5139583;28;20163;-67
2023/01/31 08:07:36;;;;;;;3.05;1.65;;;4.60;99.90;;;;;;5123728;28;20038;-64
2023/01/31 08:10:08;;;;;;;3.90;1.27;;;4.60;99.90;;;;;;5156692;28;20034;-65
2023/01/31 08:12:39;;;;;;;8.02;1.90;;;4.60;99.90;;;;;;5168205;28;20026;-65
2023/01/31 08:15:14;;;;;;;3.80;1.80;;;4.60;99.90;;;;;;5166245;28;20038;-64
2023/01/31 08:17:47;;;;;;;4.25;1.85;;;4.60;99.90;;;;;;5151045;28;20391;-65
2023/01/31 08:20:21;;;;;;;3.65;1.60;;;4.50;99.90;;;;;;5146616;28;20034;-65
2023/01/31 08:22:58;;;;;;;3.15;1.60;;;4.50;99.90;;;;;;5147738;28;20037;-65
2023/01/31 08:25:30;;;;;;;5.32;1.90;;;4.80;99.90;;;;;;5133466;28;20038;-65
2023/01/31 08:28:01;;;;;;;3.72;1.88;;;4.90;99.90;;;;;;5135194;28;20034;-64
2023/01/31 08:30:32;;;;;;;6.13;2.33;;;5.00;99.90;;;;;;5131299;28;20034;-63
2023/01/31 08:33:03;;;;;;;2.83;1.50;;;5.00;99.90;;;;;;5148525;28;20391;-65
2023/01/31 08:35:37;;;;;;;4.13;1.80;;;4.90;99.90;;;;;;5134501;28;20349;-66
2023/01/31 08:38:13;;;;;;;2.72;1.60;;;4.90;99.90;;;;;;5134418;28;20060;-64
2023/01/31 08:40:44;;;;;;;3.80;1.50;;;4.90;99.90;;;;;;5134027;28;20374;-65
2023/01/31 08:43:22;;;;;;;4.00;2.60;;;4.70;99.90;;;;;;5134836;28;20052;-63
2023/01/31 08:45:54;;;;;;;4.72;1.63;;;4.70;99.90;;;;;;5109227;28;20645;-63
2023/01/31 08:48:27;;;;;;;4.25;2.60;;;4.70;99.90;;;;;;5150333;28;20042;-62
2023/01/31 08:51:07;;;;;;;6.60;2.05;;;4.60;99.90;;;;;;5133946;28;20057;-64
2023/01/31 08:53:43;;;;;;;3.38;2.05;;;4.50;99.90;;;;;;5152889;28;20548;-62
2023/01/31 08:56:15;;;;;;;5.88;3.13;;;4.20;99.90;;;;;;5134306;28;20038;-64
2023/01/31 08:58:46;;;;;;;4.32;2.50;;;4.00;99.90;;;;;;5133557;28;20073;-64
2023/01/31 09:01:19;;;;;;;4.85;2.50;;;3.70;99.90;;;;;;5129733;28;20030;-64
2023/01/31 09:03:55;;;;;;;8.63;4.20;;;3.60;99.90;;;;;;5163182;28;20140;-65
2023/01/31 09:06:29;;;;;;;6.85;3.60;;;3.50;99.90;;;;;;5160725;28;20053;-64
2023/01/31 09:09:00;;;;;;;4.65;3.47;;;3.50;99.90;;;;;;5154186;28;20219;-62
2023/01/31 09:11:32;;;;;;;12.15;4.40;;;3.50;99.90;;;;;;5171951;28;20529;-62
2023/01/31 09:14:03;;;;;;;4.55;3.10;;;3.50;99.90;;;;;;5170185;28;20028;-66
2023/01/31 09:16:34;;;;;;;7.60;2.97;;;3.60;99.90;;;;;;5130676;28;20044;-65
2023/01/31 09:19:08;;;;;;;6.07;3.17;;;3.60;99.90;;;;;;5150991;28;20238;-64
2023/01/31 09:21:42;;;;;;;6.28;2.50;;;3.70;99.90;;;;;;5134343;28;20349;-65
2023/01/31 09:24:14;;;;;;;5.65;2.60;;;3.90;99.90;;;;;;5166514;28;20312;-63
2023/01/31 09:26:47;;;;;;;6.88;2.88;;;4.00;99.90;;;;;;5153610;28;20042;-64
2023/01/31 09:29:19;;;;;;;5.73;2.77;;;4.20;99.90;;;;;;5154027;28;20044;-63
2023/01/31 09:31:54;;;;;;;7.45;2.08;;;4.40;99.90;;;;;;5160317;28;20210;-63
2023/01/31 09:34:25;;;;;;;3.15;1.95;;;4.50;99.90;;;;;;5142575;28;20331;-63
2023/01/31 09:36:56;;;;;;;5.03;2.00;;;4.60;99.90;;;;;;5136003;28;20523;-63
2023/01/31 09:39:31;;;;;;;4.72;2.38;;;4.70;99.90;;;;;;5160148;28;20030;-64
2023/01/31 09:42:24;;;;;;;;;;;4.90;99.90;;;;;;5149947;28;20064;-63
2023/01/31 09:44:57;;;;;;;2.65;1.73;;;5.00;99.90;;;;;;5132006;28;19909;-64
2023/01/31 09:47:42;;;;;;;5.05;1.35;;;5.20;99.90;;;;;;5129530;28;20348;-63
2023/01/31 09:50:41;;;;;;;3.30;1.42;;;5.20;99.90;;;;;;5151502;28;20038;-63
2023/01/31 09:53:20;;;;;;;3.28;1.60;;;5.20;99.90;;;;;;5128709;28;20345;-65
2023/01/31 09:56:28;;;;;;;5.45;2.17;;;5.10;99.90;;;;;;5151329;28;20030;-64
2023/01/31 09:59:22;;;;;;;6.47;2.00;;;5.20;99.90;;;;;;5132032;28;20022;-65
2023/01/31 10:02:29;;;;;;;2.85;1.38;;;5.20;99.90;;;;;;5129147;28;20310;-64
2023/01/31 10:05:06;;;;;;;1.95;1.38;;;5.20;99.90;;;;;;5138885;28;20096;-65
2023/01/31 10:07:58;;;;;;;5.93;1.88;;;5.30;99.90;;;;;;5123972;28;20373;-63
2023/01/31 10:10:51;;;;;;;1.58;1.23;;;5.40;99.90;;;;;;5164398;28;20030;-65
2023/01/31 10:13:25;;;;;;;3.00;1.55;;;5.60;99.90;;;;;;5166635;28;20189;-64
2023/01/31 10:16:05;;;;;;;2.90;1.23;;;5.50;99.90;;;;;;5162640;28;20216;-65
2023/01/31 10:18:41;;;;;;;2.25;1.15;;;5.80;99.90;;;;;;5152229;28;20049;-64
2023/01/31 10:21:24;;;;;;;2.63;2.03;;;6.00;99.90;;;;;;5170059;28;20037;-65
2023/01/31 10:24:15;;;;;;;1.25;1.15;;;6.30;99.90;;;;;;5107351;28;20049;-65
2023/01/31 10:26:53;;;;;;;1.88;1.45;;;6.30;99.90;;;;;;5130400;28;20036;-66
2023/01/31 10:29:31;;;;;;;3.25;1.70;;;6.00;99.90;;;;;;5150301;28;20038;-67
2023/01/31 10:32:09;;;;;;;3.00;1.40;;;6.00;99.90;;;;;;5129295;28;20234;-67
2023/01/31 10:34:48;;;;;;;4.07;1.60;;;6.40;99.90;;;;;;5176004;28;20030;-65
2023/01/31 10:37:40;;;;;;;5.20;1.52;;;6.70;99.90;;;;;;5170750;28;20492;-67
2023/01/31 10:40:29;;;;;;;4.80;1.55;;;6.70;99.90;;;;;;5152578;28;20049;-65
2023/01/31 10:43:13;;;;;;;5.80;2.05;;;6.50;99.90;;;;;;5151858;28;20213;-66
2023/01/31 10:45:44;;;;;;;1.25;1.00;;;6.60;99.90;;;;;;5150773;28;20030;-64
2023/01/31 10:48:24;;;;;;;4.78;1.20;;;6.50;99.90;;;;;;5171080;28;20037;-67
2023/01/31 10:50:55;;;;;;;4.03;1.42;;;6.60;99.90;;;;;;5152913;28;20227;-65
2023/01/31 10:53:40;;;;;;;5.57;1.75;;;6.80;99.90;;;;;;5152566;28;20034;-66
2023/01/31 10:56:21;;;;;;;3.03;1.98;;;6.70;99.90;;;;;;5168622;28;20040;-66
2023/01/31 10:58:52;;;;;;;2.45;1.60;;;6.90;99.90;;;;;;5136291;28;20048;-65
2023/01/31 11:01:24;;;;;;;3.42;1.75;;;7.00;99.90;;;;;;5130119;28;20037;-66
2023/01/31 11:03:59;;;;;;;4.38;1.65;;;7.00;99.90;;;;;;5125066;28;20042;-65
2023/01/31 11:06:32;;;;;;;2.53;1.92;;;7.10;99.90;;;;;;5136518;28;20050;-66
2023/01/31 11:09:10;;;;;;;2.70;1.40;;;6.90;99.90;;;;;;5133548;28;20045;-67
2023/01/31 11:11:59;;;;;;;4.30;1.83;;;6.70;99.90;;;;;;5131604;28;20037;-65
2023/01/31 11:14:30;;;;;;;1.20;1.10;;;6.60;99.90;;;;;;5149155;28;20021;-64
2023/01/31 11:17:23;;;;;;;2.22;1.38;;;6.90;99.90;;;;;;5146862;28;20030;-66
2023/01/31 11:19:57;;;;;;;3.78;1.50;;;6.90;99.90;;;;;;5141449;28;20045;-65
2023/01/31 11:22:33;;;;;;;2.45;1.33;;;7.30;99.90;;;;;;5130697;28;20488;-66
2023/01/31 11:25:05;;;;;;;4.03;1.60;;;8.20;99.90;;;;;;5148294;28;20019;-66
2023/01/31 11:27:41;;;;;;;5.93;1.37;;;8.60;99.90;;;;;;5118869;28;20042;-63
2023/01/31 11:30:29;;;;;;;1.75;1.52;;;8.40;99.90;;;;;;5147229;28;20053;-66
2023/01/31 11:33:00;;;;;;;2.13;1.48;;;8.10;99.90;;;;;;5118898;28;20029;-65
2023/01/31 11:35:33;;;;;;;1.58;1.45;;;8.20;99.90;;;;;;5151775;28;20046;-66
2023/01/31 11:38:11;;;;;;;4.13;2.03;;;8.50;99.90;;;;;;5151643;28;20041;-66
2023/01/31 11:40:47;;;;;;;2.47;1.77;;;8.10;99.90;;;;;;5151245;28;20039;-66
2023/01/31 11:43:18;;;;;;;2.63;1.83;;;7.20;99.90;;;;;;5126520;28;20540;-67
2023/01/31 11:46:03;;;;;;;2.08;1.58;;;6.50;99.90;;;;;;5130652;28;20478;-66
2023/01/31 11:48:41;;;;;;;4.72;1.98;;;6.20;99.90;;;;;;5131507;28;20034;-66
2023/01/31 11:51:30;;;;;;;3.13;2.13;;;6.20;99.90;;;;;;5132196;28;20111;-65
2023/01/31 11:54:03;;;;;;;1.70;1.58;;;6.20;99.90;;;;;;5147767;28;20275;-66
2023/01/31 11:56:38;;;;;;;6.70;2.47;;;6.40;99.90;;;;;;5139397;28;20369;-65
2023/01/31 11:59:15;;;;;;;5.95;2.20;;;7.00;99.90;;;;;;5112576;28;20037;-65
2023/01/31 12:01:51;;;;;;;5.78;1.70;;;7.70;99.90;;;;;;5110527;28;20042;-66
2023/01/31 12:04:28;;;;;;;4.75;1.90;;;8.30;99.90;;;;;;5106015;28;20617;-66
2023/01/31 12:07:20;;;;;;;7.75;2.80;;;7.80;99.90;;;;;;5132497;28;20050;-66
2023/01/31 12:09:51;;;;;;;4.60;2.63;;;7.20;99.90;;;;;;5152416;28;20050;-65
2023/01/31 12:12:35;;;;;;;2.72;1.75;;;6.60;99.90;;;;;;5152307;28;20034;-66
2023/01/31 12:15:19;;;;;;;7.35;2.10;;;6.70;99.90;;;;;;5132264;28;20553;-67
2023/01/31 12:17:53;;;;;;;3.13;1.77;;;6.90;99.90;;;;;;5118405;28;20042;-66
2023/01/31 12:20:52;;;;;;;5.55;2.05;;;7.70;99.90;;;;;;5151802;28;20038;-66
2023/01/31 12:23:34;;;;;;;2.95;2.05;;;7.60;99.90;;;;;;5117994;28;20236;-69
2023/01/31 12:26:23;;;;;;;5.22;2.17;;;6.80;99.90;;;;;;5134486;28;20040;-63
2023/01/31 12:29:13;;;;;;;5.72;2.10;;;6.50;99.90;;;;;;5133273;28;20050;-64
2023/01/31 12:32:14;;;;;;;4.20;1.73;;;6.10;99.90;;;;;;5117695;28;20041;-66
2023/01/31 12:35:00;;;;;;;2.55;1.77;;;6.60;99.90;;;;;;5127473;28;20052;-65
2023/01/31 12:37:45;;;;;;;4.85;2.00;;;6.20;99.90;;;;;;5099386;28;20049;-64
2023/01/31 12:40:34;;;;;;;3.38;1.80;;;5.90;99.90;;;;;;5113784;28;20057;-65
2023/01/31 12:43:40;;;;;;;4.13;2.08;;;6.80;99.90;;;;;;5098013;28;20035;-66
2023/01/31 12:46:39;;;;;;;3.25;2.28;;;8.50;99.90;;;;;;5111549;28;20034;-65
2023/01/31 12:49:35;;;;;;;4.63;1.90;;;8.30;99.90;;;;;;5109544;28;20060;-65
2023/01/31 12:52:23;;;;;;;3.00;1.83;;;8.70;99.90;;;;;;5114326;28;20038;-65
2023/01/31 12:54:57;;;;;;;4.82;2.50;;;8.30;99.90;;;;;;5115783;28;20033;-65
2023/01/31 12:57:35;;;;;;;4.70;1.80;;;7.70;99.90;;;;;;5114889;28;20035;-66
2023/01/31 13:00:17;;;;;;;3.83;1.60;;;7.20;99.90;;;;;;5092230;29;20035;-65
2023/01/31 13:03:15;;;;;;;3.75;1.52;;;6.90;99.90;;;;;;5144097;28;20030;-66
2023/01/31 13:05:50;;;;;;;4.10;2.17;;;6.60;1.00;;;;;;5134376;28;20055;-64
2023/01/31 13:08:24;;;;;;;3.92;1.70;;;6.40;1.00;;;;;;5149991;28;20343;-65
2023/01/31 13:11:14;;;;;;;2.30;1.65;;;6.30;1.00;;;;;;5151226;28;20110;-65
2023/01/31 13:13:57;;;;;;;4.65;1.77;;;6.60;1.00;;;;;;5152167;28;20029;-65
2023/01/31 13:16:34;;;;;;;4.78;1.73;;;6.90;1.00;;;;;;5117332;28;20034;-67
2023/01/31 13:19:19;;;;;;;3.75;2.22;;;6.60;1.00;;;;;;5151626;28;20044;-66
2023/01/31 13:21:55;;;;;;;4.22;1.70;;;6.40;1.00;;;;;;5152240;28;20239;-66
2023/01/31 13:24:34;;;;;;;4.07;1.65;;;6.70;1.00;;;;;;5149816;28;20040;-66
2023/01/31 13:27:29;;;;;;;6.05;1.67;;;7.20;1.00;;;;;;5154480;28;20030;-64
2023/01/31 13:30:15;;;;;;;2.10;1.30;;;7.80;99.90;;;;;;5152223;28;20033;-67
2023/01/31 13:32:51;;;;;;;1.45;1.25;;;8.50;1.00;;;;;;5150908;28;20034;-64
2023/01/31 13:35:34;;;;;;;4.00;1.70;;;8.20;1.00;;;;;;5149158;28;20044;-65
2023/01/31 13:38:19;;;;;;;4.65;2.00;;;7.50;1.00;;;;;;5135840;28;20371;-65
2023/01/31 13:40:58;;;;;;;5.03;1.73;;;7.10;1.00;;;;;;5152070;28;20048;-66
2023/01/31 13:43:30;;;;;;;5.45;1.42;;;6.80;69.40;;;;;;5169839;28;20084;-65
2023/01/31 13:46:05;;;;;;;7.32;2.20;;;6.80;99.90;;;;;;5156954;28;20031;-65
2023/01/31 13:48:53;;;;;;;1.58;1.40;;;6.50;24.30;;;;;;5127683;28;20054;-64
2023/01/31 13:51:44;;;;;;;2.15;1.55;;;6.00;99.90;;;;;;5118239;28;20046;-65
2023/01/31 13:54:32;;;;;;;2.35;1.17;;;6.00;99.90;;;;;;5149429;28;20022;-65
2023/01/31 13:57:18;;;;;;;3.53;1.67;;;6.00;99.90;;;;;;5132091;28;20026;-65
2023/01/31 14:00:00;;;;;;;1.60;1.10;;;5.80;99.90;;;;;;5150797;28;20032;-65
2023/01/31 14:02:32;;;;;;;1.63;1.05;;;5.80;99.90;;;;;;5157864;28;20405;-65